createdAt,value
2022-08-21T00:02:25.394Z,1.70
2022-08-21T00:04:57.186Z,1.58
2022-08-21T00:07:26.985Z,1.40
2022-08-21T00:09:55.346Z,1.52
2022-08-21T00:12:23.658Z,1.50
2022-08-21T00:14:57.203Z,1.50
2022-08-21T00:17:27.707Z,1.40
2022-08-21T00:19:57.212Z,1.50
2022-08-21T00:22:26.102Z,1.60
2022-08-21T00:24:54.576Z,1.50
2022-08-21T00:27:23.977Z,1.58
2022-08-21T00:29:55.860Z,1.42
2022-08-21T00:32:27.740Z,1.70
2022-08-21T00:34:55.937Z,1.70
2022-08-21T00:37:24.115Z,1.42
2022-08-21T00:39:52.428Z,1.38
2022-08-21T00:42:23.752Z,1.38
2022-08-21T00:44:52.626Z,1.73
2022-08-21T00:47:22.262Z,1.60
2022-08-21T00:49:50.545Z,1.35
2022-08-21T00:52:28.644Z,1.38
2022-08-21T00:55:00.654Z,1.50
2022-08-21T00:57:44.044Z,1.30
2022-08-21T01:00:29.940Z,1.80
2022-08-21T01:03:03.247Z,1.60
2022-08-21T01:05:36.806Z,1.25
2022-08-21T01:08:07.872Z,1.45
2022-08-21T01:10:38.171Z,1.38
2022-08-21T01:13:11.377Z,1.55
2022-08-21T01:15:47.619Z,1.50
2022-08-21T01:18:18.556Z,1.60
2022-08-21T01:23:49.424Z,1.63
2022-08-21T01:26:24.049Z,1.48
2022-08-21T01:29:15.664Z,1.60
2022-08-21T01:31:44.561Z,1.40
2022-08-21T01:34:13.533Z,1.40
2022-08-21T01:36:43.607Z,1.73
2022-08-21T01:39:13.083Z,1.60
2022-08-21T01:41:41.280Z,1.65
2022-08-21T01:44:11.268Z,1.50
2022-08-21T01:46:40.570Z,1.60
2022-08-21T01:49:09.830Z,1.80
2022-08-21T01:51:37.837Z,1.52
2022-08-21T01:54:08.096Z,1.90
2022-08-21T01:56:49.570Z,2.08
2022-08-21T01:59:17.604Z,1.88
2022-08-21T02:01:45.856Z,1.42
2022-08-21T02:04:13.995Z,1.75
2022-08-21T02:06:42.860Z,1.38
2022-08-21T02:09:13.672Z,1.90
2022-08-21T02:11:44.705Z,1.43
2022-08-21T02:14:16.060Z,1.83
2022-08-21T02:17:03.400Z,1.73
2022-08-21T02:19:37.856Z,1.65
2022-08-21T02:22:12.629Z,1.60
2022-08-21T02:24:54.037Z,1.80
2022-08-21T02:27:27.638Z,1.65
2022-08-21T02:29:59.370Z,1.80
2022-08-21T02:32:27.745Z,1.73
2022-08-21T02:34:56.127Z,1.45
2022-08-21T02:37:26.025Z,1.77
2022-08-21T02:39:54.823Z,1.60
2022-08-21T02:42:23.850Z,1.65
2022-08-21T02:44:52.092Z,1.90
2022-08-21T02:47:20.664Z,1.77
2022-08-21T02:49:49.453Z,1.80
2022-08-21T02:52:18.237Z,1.83
2022-08-21T02:54:48.149Z,1.67
2022-08-21T02:57:16.640Z,1.70
2022-08-21T02:59:45.525Z,1.50
2022-08-21T03:02:14.515Z,1.63
2022-08-21T03:04:46.709Z,1.80
2022-08-21T03:07:18.226Z,1.80
2022-08-21T03:09:55.502Z,2.00
2022-08-21T03:12:26.650Z,1.77
2022-08-21T03:15:00.060Z,1.70
2022-08-21T03:17:30.271Z,2.15
2022-08-21T03:19:59.167Z,2.00
2022-08-21T03:22:30.835Z,1.70
2022-08-21T03:25:00.434Z,1.88
2022-08-21T03:27:31.798Z,1.60
2022-08-21T03:30:00.248Z,1.80
2022-08-21T03:32:29.042Z,1.77
2022-08-21T03:34:57.751Z,1.67
2022-08-21T03:37:25.882Z,1.80
2022-08-21T03:39:54.417Z,1.70
2022-08-21T03:42:22.409Z,1.70
2022-08-21T03:44:50.910Z,2.00
2022-08-21T03:47:19.473Z,1.75
2022-08-21T03:49:47.677Z,1.70
2022-08-21T03:52:16.468Z,1.70
2022-08-21T03:54:46.201Z,1.85
2022-08-21T03:57:14.604Z,1.88
2022-08-21T03:59:44.353Z,1.52
2022-08-21T04:02:20.446Z,1.90
2022-08-21T04:04:49.385Z,2.00
2022-08-21T04:07:18.683Z,1.70
2022-08-21T04:09:47.515Z,1.80
2022-08-21T04:12:15.899Z,1.63
2022-08-21T04:14:44.802Z,1.70
2022-08-21T04:17:13.090Z,1.80
2022-08-21T04:19:42.025Z,1.85
2022-08-21T04:22:10.356Z,1.67
2022-08-21T04:24:39.254Z,1.67
2022-08-21T04:27:07.464Z,2.20
2022-08-21T04:29:39.916Z,2.00
2022-08-21T04:32:08.420Z,1.85
2022-08-21T04:34:38.703Z,1.80
2022-08-21T04:37:07.594Z,1.80
2022-08-21T04:39:36.565Z,1.90
2022-08-21T04:42:08.703Z,1.60
2022-08-21T04:44:37.688Z,1.90
2022-08-21T04:47:07.012Z,1.65
2022-08-21T04:49:36.403Z,1.60
2022-08-21T04:52:06.613Z,1.80
2022-08-21T04:54:35.571Z,1.90
2022-08-21T04:57:11.358Z,1.83
2022-08-21T04:59:51.488Z,1.70
2022-08-21T05:02:22.410Z,2.00
2022-08-21T05:04:54.573Z,1.90
2022-08-21T05:07:42.651Z,1.63
2022-08-21T05:10:13.895Z,2.17
2022-08-21T05:12:43.889Z,2.17
2022-08-21T05:15:14.392Z,1.92
2022-08-21T05:17:43.110Z,1.70
2022-08-21T05:20:14.820Z,1.98
2022-08-21T05:22:44.589Z,1.92
2022-08-21T05:25:12.854Z,1.73
2022-08-21T05:27:41.385Z,2.00
2022-08-21T05:30:13.098Z,1.88
2022-08-21T05:32:41.090Z,1.90
2022-08-21T05:35:10.432Z,1.80
2022-08-21T05:37:59.226Z,4.28
2022-08-21T05:40:47.594Z,3.47
2022-08-21T05:43:34.210Z,2.50
2022-08-21T05:46:02.217Z,2.92
2022-08-21T05:48:31.564Z,2.17
2022-08-21T05:51:09.708Z,1.77
2022-08-21T05:53:39.295Z,1.90
2022-08-21T05:56:07.877Z,1.80
2022-08-21T05:58:36.693Z,1.80
2022-08-21T06:01:06.544Z,1.70
2022-08-21T06:03:38.598Z,1.90
2022-08-21T06:06:07.132Z,1.60
2022-08-21T06:08:36.793Z,2.00
2022-08-21T06:11:07.906Z,1.85
2022-08-21T06:13:37.864Z,1.90
2022-08-21T06:16:15.808Z,1.83
2022-08-21T06:18:46.316Z,1.90
2022-08-21T06:21:15.285Z,1.83
2022-08-21T06:23:45.029Z,2.20
2022-08-21T06:26:15.081Z,1.80
2022-08-21T06:28:44.851Z,1.92
2022-08-21T06:31:23.078Z,2.08
2022-08-21T06:33:52.089Z,1.70
2022-08-21T06:36:24.759Z,2.35
2022-08-21T06:38:54.103Z,1.65
2022-08-21T06:41:26.452Z,1.85
2022-08-21T06:43:57.060Z,1.63
2022-08-21T06:46:29.476Z,1.90
2022-08-21T06:49:01.066Z,1.70
2022-08-21T06:51:30.892Z,2.22
2022-08-21T06:53:59.601Z,1.85
2022-08-21T06:56:28.023Z,2.00
2022-08-21T06:58:56.839Z,2.10
2022-08-21T07:01:27.932Z,2.13
2022-08-21T07:03:56.701Z,2.10
2022-08-21T07:06:26.012Z,2.17
2022-08-21T07:08:58.893Z,1.80
2022-08-21T07:11:27.223Z,1.83
2022-08-21T07:13:57.467Z,1.88
2022-08-21T07:16:26.108Z,2.05
2022-08-21T07:18:53.961Z,1.90
2022-08-21T07:21:26.026Z,2.15
2022-08-21T07:23:56.663Z,1.88
2022-08-21T07:26:27.259Z,1.90
2022-08-21T07:28:56.623Z,1.75
2022-08-21T07:31:27.237Z,1.70
2022-08-21T07:33:56.025Z,1.80
2022-08-21T07:36:24.818Z,1.83
2022-08-21T07:38:53.663Z,1.73
2022-08-21T07:41:26.627Z,1.58
2022-08-21T07:43:54.725Z,1.75
2022-08-21T07:46:24.481Z,1.65
2022-08-21T07:48:53.717Z,2.75
2022-08-21T07:51:27.887Z,2.50
2022-08-21T07:54:00.139Z,1.90
2022-08-21T07:56:31.561Z,2.00
2022-08-21T07:58:59.975Z,1.92
2022-08-21T08:01:28.040Z,2.50
2022-08-21T08:03:57.259Z,2.65
2022-08-21T08:06:27.023Z,2.05
2022-08-21T08:08:55.134Z,2.20
2022-08-21T08:11:24.795Z,2.13
2022-08-21T08:13:53.818Z,1.80
2022-08-21T08:16:22.083Z,1.90
2022-08-21T08:18:51.808Z,2.13
2022-08-21T08:21:22.813Z,2.10
2022-08-21T08:23:51.654Z,1.90
2022-08-21T08:26:20.883Z,2.10
2022-08-21T08:28:48.833Z,2.10
2022-08-21T08:31:17.694Z,1.88
2022-08-21T08:33:47.013Z,2.55
2022-08-21T08:36:20.490Z,2.15
2022-08-21T08:38:49.381Z,2.10
2022-08-21T08:41:30.762Z,2.05
2022-08-21T08:44:07.355Z,1.93
2022-08-21T08:46:57.848Z,2.20
2022-08-21T08:49:56.065Z,2.40
2022-08-21T08:52:41.503Z,3.10
2022-08-21T08:55:18.566Z,2.22
2022-08-21T08:57:50.392Z,2.33
2022-08-21T09:00:24.275Z,3.30
2022-08-21T09:03:01.430Z,2.53
2022-08-21T09:06:01.770Z,2.20
2022-08-21T09:09:19.359Z,3.70
2022-08-21T09:12:12.970Z,2.83
2022-08-21T09:14:50.773Z,2.30
2022-08-21T09:17:35.727Z,2.25
2022-08-21T09:20:38.668Z,2.42
2022-08-21T09:23:35.909Z,2.20
2022-08-21T09:26:14.318Z,2.35
2022-08-21T09:28:43.975Z,2.42
2022-08-21T09:31:34.172Z,2.08
2022-08-21T09:34:14.312Z,2.20
2022-08-21T09:36:51.469Z,2.00
2022-08-21T09:39:42.629Z,2.35
2022-08-21T09:42:28.271Z,1.98
2022-08-21T09:45:15.112Z,2.47
2022-08-21T09:47:47.701Z,2.30
2022-08-21T09:50:28.571Z,2.25
2022-08-21T09:53:02.102Z,1.90
2022-08-21T09:56:12.367Z,2.30
2022-08-21T09:58:46.119Z,2.17
2022-08-21T10:01:44.818Z,2.00
2022-08-21T10:04:15.552Z,2.05
2022-08-21T10:06:44.060Z,1.87
2022-08-21T10:09:21.754Z,2.42
2022-08-21T10:12:25.831Z,2.20
2022-08-21T10:15:14.601Z,2.22
2022-08-21T10:18:18.352Z,2.20
2022-08-21T10:21:11.777Z,2.20
2022-08-21T10:24:31.255Z,2.15
2022-08-21T10:27:42.271Z,1.92
2022-08-21T10:30:53.732Z,2.45
2022-08-21T10:36:38.065Z,3.95
2022-08-21T10:39:39.002Z,2.25
2022-08-21T10:42:40.352Z,1.92
2022-08-21T10:45:39.658Z,2.60
2022-08-21T10:48:15.998Z,2.03
2022-08-21T10:50:57.540Z,2.38
2022-08-21T10:53:50.750Z,2.40
2022-08-21T10:56:40.938Z,1.92
2022-08-21T10:59:50.578Z,2.17
2022-08-21T11:02:39.906Z,1.98
2022-08-21T11:05:51.025Z,2.13
2022-08-21T11:08:43.201Z,2.20
2022-08-21T11:11:35.759Z,2.08
2022-08-21T11:14:50.308Z,2.00
2022-08-21T11:17:44.862Z,1.80
2022-08-21T11:20:47.867Z,1.83
2022-08-21T11:23:27.332Z,2.20
2022-08-21T11:26:06.817Z,2.20
2022-08-21T11:28:52.362Z,1.85
2022-08-21T11:31:44.863Z,1.90
2022-08-21T11:34:50.168Z,1.98
2022-08-21T11:37:59.760Z,2.00
2022-08-21T11:41:03.746Z,2.13
2022-08-21T11:44:26.937Z,1.90
2022-08-21T11:47:25.093Z,2.30
2022-08-21T11:50:34.924Z,2.10
2022-08-21T11:53:14.890Z,1.87
2022-08-21T11:55:55.530Z,2.13
2022-08-21T11:58:48.925Z,1.60
2022-08-21T12:01:28.556Z,1.70
2022-08-21T12:04:11.111Z,2.08
2022-08-21T12:06:42.583Z,1.80
2022-08-21T12:09:37.878Z,1.98
2022-08-21T12:12:39.106Z,1.52
2022-08-21T12:15:26.461Z,1.85
2022-08-21T12:18:21.889Z,1.98
2022-08-21T12:21:22.286Z,1.58
2022-08-21T12:24:14.831Z,1.50
2022-08-21T12:26:51.110Z,1.60
2022-08-21T12:29:39.151Z,1.83
2022-08-21T12:32:16.728Z,1.73
2022-08-21T12:34:54.404Z,1.38
2022-08-21T12:38:07.790Z,1.50
2022-08-21T12:40:58.801Z,2.00
2022-08-21T12:46:00.080Z,1.73
2022-08-21T12:49:03.119Z,2.20
2022-08-21T12:51:49.470Z,1.77
2022-08-21T12:54:33.180Z,1.60
2022-08-21T12:57:07.930Z,1.60
2022-08-21T12:59:41.018Z,1.38
2022-08-21T13:02:38.310Z,1.70
2022-08-21T13:05:18.281Z,1.40
2022-08-21T13:07:49.954Z,1.60
2022-08-21T13:10:25.305Z,1.50
2022-08-21T13:13:12.419Z,1.60
2022-08-21T13:15:47.895Z,1.40
2022-08-21T13:18:27.054Z,1.60
2022-08-21T13:21:13.112Z,1.60
2022-08-21T13:23:45.062Z,1.63
2022-08-21T13:26:23.305Z,1.40
2022-08-21T13:28:52.171Z,1.67
2022-08-21T13:31:30.795Z,1.55
2022-08-21T13:34:01.785Z,1.75
2022-08-21T13:36:41.754Z,1.60
2022-08-21T13:39:16.615Z,1.60
2022-08-21T13:41:51.127Z,1.90
2022-08-21T13:44:44.792Z,1.73
2022-08-21T13:47:19.202Z,1.70
2022-08-21T13:49:52.314Z,1.70
2022-08-21T13:52:27.639Z,1.55
2022-08-21T13:55:14.558Z,1.80
2022-08-21T13:57:43.241Z,1.80
2022-08-21T14:00:31.983Z,1.45
2022-08-21T14:03:24.629Z,1.50
2022-08-21T14:05:53.526Z,1.30
2022-08-21T14:08:33.273Z,1.40
2022-08-21T14:11:05.454Z,1.48
2022-08-21T14:13:49.470Z,1.65
2022-08-21T14:16:25.541Z,1.60
2022-08-21T14:19:04.326Z,1.50
2022-08-21T14:21:48.092Z,1.50
2022-08-21T14:24:35.677Z,1.55
2022-08-21T14:27:09.639Z,1.42
2022-08-21T14:29:43.978Z,1.45
2022-08-21T14:32:26.095Z,1.67
2022-08-21T14:34:59.222Z,1.70
2022-08-21T14:37:29.252Z,1.80
2022-08-21T14:39:59.682Z,1.58
2022-08-21T14:42:30.025Z,1.58
2022-08-21T14:45:09.023Z,1.50
2022-08-21T14:47:39.808Z,1.75
2022-08-21T14:50:10.911Z,1.50
2022-08-21T14:52:41.333Z,1.63
2022-08-21T14:55:15.331Z,1.38
2022-08-21T14:57:49.742Z,1.55
2022-08-21T15:00:26.999Z,1.33
2022-08-21T15:03:06.263Z,1.52
2022-08-21T15:08:09.273Z,1.45
2022-08-21T15:10:48.263Z,1.50
2022-08-21T15:13:27.450Z,1.40
2022-08-21T15:15:57.410Z,1.48
2022-08-21T15:18:29.692Z,1.50
2022-08-21T15:21:01.908Z,1.35
2022-08-21T15:23:31.455Z,1.40
2022-08-21T15:25:59.888Z,1.33
2022-08-21T15:28:31.736Z,1.52
2022-08-21T15:31:02.432Z,1.40
2022-08-21T15:33:30.393Z,1.45
2022-08-21T15:36:01.292Z,1.40
2022-08-21T15:38:30.688Z,1.42
2022-08-21T15:40:59.679Z,1.33
2022-08-21T15:43:32.021Z,1.40
2022-08-21T15:46:01.720Z,1.23
2022-08-21T15:48:32.339Z,1.30
2022-08-21T15:51:00.799Z,1.50
2022-08-21T15:53:31.229Z,1.50
2022-08-21T15:56:04.040Z,1.40
2022-08-21T15:58:32.513Z,1.33
2022-08-21T16:01:03.508Z,1.20
2022-08-21T16:03:33.235Z,1.27
2022-08-21T16:06:01.600Z,1.50
2022-08-21T16:08:29.970Z,1.40
2022-08-21T16:10:58.574Z,1.30
2022-08-21T16:13:36.631Z,1.60
2022-08-21T16:16:07.413Z,1.30
2022-08-21T16:18:35.903Z,1.38
2022-08-21T16:21:04.640Z,1.33
2022-08-21T16:23:32.807Z,1.30
2022-08-21T16:26:02.876Z,1.30
2022-08-21T16:28:35.828Z,1.23
2022-08-21T16:31:05.376Z,1.30
2022-08-21T16:33:41.863Z,1.27
2022-08-21T16:36:13.212Z,1.33
2022-08-21T16:38:45.361Z,1.92
2022-08-21T16:41:19.724Z,1.65
2022-08-21T16:43:52.399Z,1.50
2022-08-21T16:46:23.322Z,1.42
2022-08-21T16:51:20.690Z,1.48
2022-08-21T16:53:50.714Z,1.63
2022-08-21T16:56:21.844Z,1.45
2022-08-21T16:58:54.211Z,1.83
2022-08-21T17:01:28.983Z,1.35
2022-08-21T17:03:58.858Z,1.27
2022-08-21T17:06:28.981Z,1.55
2022-08-21T17:08:58.969Z,1.45
2022-08-21T17:11:40.051Z,1.50
2022-08-21T17:14:22.764Z,1.40
2022-08-21T17:16:56.275Z,1.60
2022-08-21T17:19:26.575Z,1.63
2022-08-21T17:21:55.169Z,1.40
2022-08-21T17:24:24.248Z,1.70
2022-08-21T17:26:56.532Z,1.60
2022-08-21T17:29:31.463Z,1.58
2022-08-21T17:32:00.061Z,1.52
2022-08-21T17:34:31.757Z,1.73
2022-08-21T17:39:29.536Z,1.40
2022-08-21T17:42:03.534Z,1.65
2022-08-21T17:44:34.815Z,2.20
2022-08-21T17:47:03.013Z,1.90
2022-08-21T17:49:31.266Z,2.15
2022-08-21T17:52:01.197Z,2.70
2022-08-21T17:54:30.596Z,3.28
2022-08-21T17:56:59.063Z,2.35
2022-08-21T17:59:28.122Z,1.98
2022-08-21T18:02:01.699Z,2.13
2022-08-21T18:04:31.343Z,2.00
2022-08-21T18:06:59.613Z,2.10
2022-08-21T18:09:29.905Z,1.80
2022-08-21T18:12:00.439Z,1.80
2022-08-21T18:14:34.756Z,1.60
2022-08-21T18:17:12.683Z,1.95
2022-08-21T18:19:48.933Z,1.90
2022-08-21T18:22:18.375Z,2.10
2022-08-21T18:24:46.890Z,2.10
2022-08-21T18:27:18.751Z,2.10
2022-08-21T18:29:47.769Z,2.30
2022-08-21T18:32:30.352Z,2.50
2022-08-21T18:35:03.602Z,2.03
2022-08-21T18:37:34.319Z,1.73
2022-08-21T18:40:06.937Z,1.52
2022-08-21T18:42:42.509Z,1.80
2022-08-21T18:45:26.222Z,2.05
2022-08-21T18:47:58.255Z,2.40
2022-08-21T18:50:29.356Z,1.95
2022-08-21T18:55:31.711Z,2.20
2022-08-21T18:58:00.836Z,2.30
2022-08-21T19:00:35.741Z,1.80
2022-08-21T19:03:05.894Z,2.00
2022-08-21T19:05:36.703Z,2.10
2022-08-21T19:08:07.455Z,1.92
2022-08-21T19:10:37.484Z,2.00
2022-08-21T19:13:16.742Z,1.80
2022-08-21T19:15:50.342Z,1.90
2022-08-21T19:18:27.979Z,1.90
2022-08-21T19:20:57.627Z,1.98
2022-08-21T19:23:29.141Z,1.75
2022-08-21T19:26:03.137Z,1.70
2022-08-21T19:28:41.586Z,2.17
2022-08-21T19:31:26.141Z,1.90
2022-08-21T19:34:20.498Z,2.08
2022-08-21T19:36:52.464Z,1.88
2022-08-21T19:39:25.510Z,2.17
2022-08-21T19:41:59.222Z,1.85
2022-08-21T19:44:31.095Z,1.88
2022-08-21T19:50:00.207Z,1.70
2022-08-21T19:52:29.128Z,1.90
2022-08-21T19:54:59.944Z,2.20
2022-08-21T19:57:30.064Z,2.42
2022-08-21T19:59:58.924Z,1.95
2022-08-21T20:02:28.946Z,2.25
2022-08-21T20:04:57.817Z,2.20
2022-08-21T20:07:27.231Z,1.98
2022-08-21T20:09:57.760Z,1.98
2022-08-21T20:12:26.761Z,1.80
2022-08-21T20:14:58.503Z,2.13
2022-08-21T20:17:27.202Z,2.00
2022-08-21T20:19:56.529Z,2.30
2022-08-21T20:22:25.170Z,2.20
2022-08-21T20:24:55.307Z,1.90
2022-08-21T20:27:27.464Z,2.00
2022-08-21T20:29:57.417Z,2.20
2022-08-21T20:32:27.699Z,2.00
2022-08-21T20:34:56.682Z,2.45
2022-08-21T20:40:20.965Z,1.95
2022-08-21T20:42:53.582Z,2.15
2022-08-21T20:45:25.945Z,2.17
2022-08-21T20:48:05.587Z,1.80
2022-08-21T20:50:39.686Z,1.80
2022-08-21T20:53:26.081Z,2.10
2022-08-21T20:56:19.651Z,1.85
2022-08-21T20:59:20.293Z,1.85
2022-08-21T21:01:52.046Z,1.95
2022-08-21T21:04:45.305Z,2.20
2022-08-21T21:07:24.222Z,2.13
2022-08-21T21:09:55.886Z,1.90
2022-08-21T21:12:40.404Z,1.80
2022-08-21T21:15:27.741Z,1.80
2022-08-21T21:18:21.232Z,2.00
2022-08-21T21:21:08.555Z,2.10
2022-08-21T21:24:08.783Z,1.90
2022-08-21T21:26:53.961Z,1.95
2022-08-21T21:29:35.630Z,2.03
2022-08-21T21:32:07.708Z,2.33
2022-08-21T21:34:46.705Z,1.80
2022-08-21T21:37:56.576Z,1.85
2022-08-21T21:40:53.532Z,2.30
2022-08-21T21:43:56.647Z,2.20
2022-08-21T21:46:52.566Z,1.95
2022-08-21T21:50:00.238Z,2.20
2022-08-21T21:52:48.573Z,2.20
2022-08-21T21:56:06.408Z,2.60
2022-08-21T21:58:44.930Z,2.65
2022-08-21T22:01:23.820Z,2.30
2022-08-21T22:04:56.016Z,2.17
2022-08-21T22:10:43.250Z,2.35
2022-08-21T22:13:29.169Z,2.42
2022-08-21T22:16:05.334Z,2.40
2022-08-21T22:18:54.690Z,2.30
2022-08-21T22:21:36.358Z,2.40
2022-08-21T22:24:22.578Z,2.60
2022-08-21T22:27:02.040Z,2.20
2022-08-21T22:32:50.399Z,2.25
2022-08-21T22:35:28.339Z,2.50
2022-08-21T22:38:12.715Z,2.50
2022-08-21T22:40:42.036Z,2.22
2022-08-21T22:43:19.500Z,2.03
2022-08-21T22:46:07.129Z,2.45
2022-08-21T22:48:53.499Z,2.40
2022-08-21T22:51:38.713Z,2.50
2022-08-21T22:54:21.748Z,2.40
2022-08-21T22:57:02.284Z,2.40
2022-08-21T22:59:40.716Z,2.65
2022-08-21T23:02:22.588Z,2.38
2022-08-21T23:04:57.459Z,2.58
2022-08-21T23:07:49.632Z,2.45
2022-08-21T23:10:30.123Z,2.50
2022-08-21T23:16:55.667Z,2.30
2022-08-21T23:19:57.925Z,2.20
2022-08-21T23:22:49.239Z,2.40
2022-08-21T23:25:36.061Z,2.30
2022-08-21T23:28:27.051Z,2.47
2022-08-21T23:31:28.927Z,2.78
2022-08-21T23:34:27.702Z,2.45
2022-08-21T23:37:23.186Z,2.85
2022-08-21T23:40:23.156Z,2.40
2022-08-21T23:43:31.008Z,2.30
2022-08-21T23:46:11.400Z,2.30
2022-08-21T23:49:19.394Z,2.30
2022-08-21T23:52:04.322Z,2.30
2022-08-21T23:55:16.337Z,2.33
2022-08-21T23:58:04.943Z,2.22
